San Francisco, California
Traffic Map
Current Weather Conditions
San Francisco, California
Few Clouds
Few Clouds
42°
Feels Like: 42°
Wind Chill: 42° Ceiling: Unl
Heat Index: 42° Visibility: 10mi
Dew Point: 38° Wind: 3mph
Humidity: 85% Direction: 200° (SSW)
Pressure: 30.14in Gusts: 0mph
Raw Report DataKSFO 071156Z 20003KT 10SM FEW200 06/03 A3014 RMK AO2 SLP206 T00560033 10100 20056 58002 $
Traffic Incident Summary
Active as of:
Severity:
Category:
InformationThere was an issue retrieving the traffic information for this location. Please try a different location or try again shortly.
Advertisements
Track Severe Weather on mobile